Postoak, Texas
Current Conditions -  °F | °C
As of 6:35 PM on Saturday 25 Oct 2014 (Local Time) from K0F2 Reporting Station
Clear Clear  
Wind Chill: 27°   Ceiling: Unl
Heat Index: 27°   Visibility: 10mi
Dew Point: 17°   Wind: 0mph
Humidity: 53%   Direction: NA
Pressure: 30.05"   Gusts: NA
Location:  33.5529°N, 97.8448°W
Report Text: K0F2 252335Z AUTO 00000KT 10SM CLR 27/17 A3005 RMK AO2 T02680166
Loading
Personal Weather Stations






























Interactive Weather Map
Tropical Storm Tracking
New forecast layout! Learn more

10-Day Weather Forecast

Advertisements
Track Severe Weather on mobile